Time;durP1;ratioP1;P1;durP2;ratioP2;P2;SDS_P1;SDS_P2;PMS_P1;PMS_P2;Temp;Humidity;BMP_temperature;BMP_pressure;BME280_temperature;BME280_humidity;BME280_pressure;Samples;Min_cycle;Max_cycle;Signal;HPM_P1;HPM_P2
2023/04/06 00:01:34;;;;;;;8.77;6.10;;;2.70;99.90;;;;;;5041554;27;20557;-53
2023/04/06 00:04:00;;;;;;;8.07;6.10;;;2.70;99.90;;;;;;5058065;28;20503;-50
2023/04/06 00:06:26;;;;;;;8.20;6.22;;;2.70;99.90;;;;;;5041335;27;20053;-53
2023/04/06 00:08:52;;;;;;;7.25;6.55;;;2.70;99.90;;;;;;5030520;28;20044;-54
2023/04/06 00:11:17;;;;;;;7.35;6.50;;;2.70;99.90;;;;;;5038066;28;20037;-50
2023/04/06 00:13:44;;;;;;;8.00;6.43;;;2.60;99.90;;;;;;5040723;28;20427;-51
2023/04/06 00:16:10;;;;;;;7.10;5.85;;;2.60;99.90;;;;;;5031924;28;20118;-52
2023/04/06 00:18:35;;;;;;;7.63;6.60;;;2.50;99.90;;;;;;5043588;28;20053;-52
2023/04/06 00:21:01;;;;;;;8.48;6.75;;;2.50;99.90;;;;;;5043824;28;20362;-51
2023/04/06 00:23:26;;;;;;;8.18;6.45;;;2.50;99.90;;;;;;5042222;28;20071;-54
2023/04/06 00:25:52;;;;;;;6.95;6.28;;;2.40;99.90;;;;;;5051535;28;20386;-54
2023/04/06 00:28:24;;;;;;;8.65;6.75;;;2.30;99.90;;;;;;5041729;28;20039;-53
2023/04/06 00:30:52;;;;;;;8.43;7.00;;;2.30;99.90;;;;;;5037694;28;20387;-50
2023/04/06 00:33:21;;;;;;;7.28;6.47;;;2.30;99.90;;;;;;5038502;28;20395;-52
2023/04/06 00:35:46;;;;;;;7.95;6.57;;;2.30;99.90;;;;;;5041326;28;20671;-51
2023/04/06 00:38:12;;;;;;;8.13;7.00;;;2.20;99.90;;;;;;5037791;27;20098;-54
2023/04/06 00:40:39;;;;;;;9.18;6.68;;;2.20;99.90;;;;;;5048123;28;20045;-51
2023/04/06 00:43:05;;;;;;;7.72;6.82;;;2.20;99.90;;;;;;5034915;27;20045;-54
2023/04/06 00:45:32;;;;;;;9.60;6.95;;;2.10;99.90;;;;;;5042633;28;20120;-51
2023/04/06 00:47:57;;;;;;;8.25;6.93;;;2.00;99.90;;;;;;5022021;28;20095;-52
2023/04/06 00:50:23;;;;;;;7.63;6.70;;;2.00;99.90;;;;;;5043618;28;20045;-55
2023/04/06 00:52:49;;;;;;;7.65;6.85;;;2.00;99.90;;;;;;5026019;28;20046;-54
2023/04/06 00:55:15;;;;;;;10.73;7.10;;;1.90;99.90;;;;;;5047376;28;20068;-51
2023/04/06 00:57:40;;;;;;;7.95;6.88;;;1.90;99.90;;;;;;5041544;28;20041;-51
2023/04/06 01:00:06;;;;;;;8.48;7.60;;;1.90;99.90;;;;;;5031557;28;20124;-51
2023/04/06 01:02:32;;;;;;;9.73;6.90;;;1.90;99.90;;;;;;5038180;28;20054;-51
2023/04/06 01:04:58;;;;;;;8.93;7.28;;;1.80;99.90;;;;;;5043290;28;20046;-54
2023/04/06 01:07:24;;;;;;;7.60;6.63;;;1.80;99.90;;;;;;5042165;28;20044;-53
2023/04/06 01:09:50;;;;;;;8.07;7.28;;;1.80;99.90;;;;;;5024263;28;20053;-52
2023/04/06 01:12:16;;;;;;;8.25;6.72;;;1.90;99.90;;;;;;5034899;28;20445;-52
2023/04/06 01:14:41;;;;;;;9.05;7.07;;;1.90;99.90;;;;;;5037551;27;20040;-50
2023/04/06 01:17:07;;;;;;;9.80;7.10;;;1.90;99.90;;;;;;5044871;28;20034;-51
2023/04/06 01:19:32;;;;;;;8.70;7.53;;;1.90;99.90;;;;;;5034051;28;20045;-52
2023/04/06 01:21:58;;;;;;;7.75;6.95;;;1.90;99.90;;;;;;5041857;28;20133;-54
2023/04/06 01:24:24;;;;;;;10.15;6.93;;;1.90;99.90;;;;;;5038796;28;20049;-51
2023/04/06 01:26:49;;;;;;;9.50;7.22;;;1.90;99.90;;;;;;5043870;28;20047;-52
2023/04/06 01:29:15;;;;;;;8.30;6.65;;;1.80;99.90;;;;;;5042617;28;20029;-50
2023/04/06 01:31:41;;;;;;;9.25;7.30;;;1.80;99.90;;;;;;5031319;28;20037;-52
2023/04/06 01:34:06;;;;;;;8.38;7.25;;;1.80;99.90;;;;;;5041693;28;20132;-52
2023/04/06 01:36:32;;;;;;;9.15;7.18;;;1.80;99.90;;;;;;5037280;28;20050;-51
2023/04/06 01:38:58;;;;;;;8.30;6.85;;;1.70;99.90;;;;;;5037545;28;20058;-48
2023/04/06 01:41:24;;;;;;;7.82;7.00;;;1.70;99.90;;;;;;5042011;28;20056;-49
2023/04/06 01:43:54;;;;;;;10.68;7.15;;;1.60;99.90;;;;;;5020179;28;20046;-52
2023/04/06 01:46:20;;;;;;;10.38;6.82;;;1.60;99.90;;;;;;5025230;28;20048;-50
2023/04/06 01:48:45;;;;;;;8.60;7.35;;;1.50;99.90;;;;;;5044832;28;20450;-52
2023/04/06 01:51:11;;;;;;;8.45;6.55;;;1.50;99.90;;;;;;5041870;28;20049;-50
2023/04/06 01:53:36;;;;;;;9.15;7.00;;;1.50;99.90;;;;;;5046532;28;20159;-52
2023/04/06 01:56:02;;;;;;;7.78;6.85;;;1.50;99.90;;;;;;5042171;28;20506;-51
2023/04/06 01:58:28;;;;;;;8.32;7.05;;;1.50;99.90;;;;;;5047209;28;20044;-52
2023/04/06 02:00:54;;;;;;;8.88;6.80;;;1.50;99.90;;;;;;5022832;28;20060;-53
2023/04/06 02:03:19;;;;;;;7.70;6.85;;;1.40;99.90;;;;;;5023896;28;20046;-51
2023/04/06 02:05:45;;;;;;;8.65;6.88;;;1.40;99.90;;;;;;5039253;27;20076;-50
2023/04/06 02:08:11;;;;;;;9.85;7.03;;;1.40;99.90;;;;;;5041291;28;20443;-50
2023/04/06 02:10:36;;;;;;;8.95;7.32;;;1.40;99.90;;;;;;5051948;28;20034;-51
2023/04/06 02:13:02;;;;;;;10.07;6.90;;;1.40;99.90;;;;;;5051796;28;20163;-54
2023/04/06 02:15:27;;;;;;;9.02;7.30;;;1.40;99.90;;;;;;5023211;27;20041;-52
2023/04/06 02:17:53;;;;;;;9.82;7.38;;;1.30;99.90;;;;;;5008018;27;20468;-53
2023/04/06 02:20:19;;;;;;;8.48;7.57;;;1.30;99.90;;;;;;5020384;27;20065;-53
2023/04/06 02:22:45;;;;;;;8.02;7.22;;;1.30;99.90;;;;;;5027485;28;20041;-52
2023/04/06 02:25:12;;;;;;;7.90;7.07;;;1.30;99.90;;;;;;5028078;27;20056;-52
2023/04/06 02:27:37;;;;;;;8.25;7.30;;;1.30;99.90;;;;;;5025154;27;20519;-54
2023/04/06 02:30:04;;;;;;;8.95;7.57;;;1.30;99.90;;;;;;5027014;27;20153;-50
2023/04/06 02:32:29;;;;;;;8.27;6.82;;;1.30;99.90;;;;;;5030013;28;20041;-49
2023/04/06 02:34:55;;;;;;;8.90;7.03;;;1.40;99.90;;;;;;5027233;27;20105;-53
2023/04/06 02:37:21;;;;;;;9.10;7.25;;;1.40;99.90;;;;;;5023085;27;20054;-54
2023/04/06 02:39:47;;;;;;;10.82;7.47;;;1.40;99.90;;;;;;5027670;27;20038;-55
2023/04/06 02:42:15;;;;;;;9.18;7.20;;;1.40;99.90;;;;;;5026075;27;20375;-51
2023/04/06 02:44:41;;;;;;;8.77;7.40;;;1.40;99.90;;;;;;5032050;27;20057;-52
2023/04/06 02:47:06;;;;;;;8.88;7.32;;;1.30;99.90;;;;;;5030533;27;20053;-53
2023/04/06 02:49:32;;;;;;;9.80;7.20;;;1.30;99.90;;;;;;5023614;27;20107;-53
2023/04/06 02:51:58;;;;;;;8.98;7.28;;;1.20;99.90;;;;;;5024951;27;20133;-52
2023/04/06 02:54:23;;;;;;;8.43;7.28;;;1.20;99.90;;;;;;5024782;27;20037;-49
2023/04/06 02:56:49;;;;;;;10.90;7.53;;;1.20;99.90;;;;;;5022560;27;20509;-53
2023/04/06 02:59:14;;;;;;;10.15;8.13;;;1.20;99.90;;;;;;5024345;27;20539;-52
2023/04/06 03:01:40;;;;;;;8.48;7.60;;;1.10;99.90;;;;;;5027048;28;20055;-51
2023/04/06 03:04:06;;;;;;;9.45;7.88;;;1.10;99.90;;;;;;5006917;28;20050;-50
2023/04/06 03:06:31;;;;;;;9.68;8.02;;;1.00;99.90;;;;;;5020658;27;20426;-52
2023/04/06 03:08:57;;;;;;;11.48;7.13;;;1.00;99.90;;;;;;5021002;27;20044;-51
2023/04/06 03:11:22;;;;;;;10.77;8.30;;;1.00;99.90;;;;;;5025718;27;20036;-50
2023/04/06 03:13:48;;;;;;;8.57;7.68;;;1.00;99.90;;;;;;5026717;27;20064;-50
2023/04/06 03:16:14;;;;;;;8.23;7.43;;;1.00;99.90;;;;;;5019836;27;21934;-50
2023/04/06 03:18:40;;;;;;;9.40;8.32;;;1.00;99.90;;;;;;5022717;27;20049;-54
2023/04/06 03:21:05;;;;;;;8.60;7.70;;;1.00;99.90;;;;;;5019354;27;20429;-50
2023/04/06 03:23:31;;;;;;;11.90;7.82;;;1.00;99.90;;;;;;5018894;28;20643;-54
2023/04/06 03:25:56;;;;;;;10.65;7.85;;;0.90;99.90;;;;;;5021057;27;20086;-54
2023/04/06 03:28:22;;;;;;;10.73;8.30;;;0.90;99.90;;;;;;5016521;27;20398;-52
2023/04/06 03:30:48;;;;;;;10.45;8.07;;;0.90;99.90;;;;;;5023327;27;20046;-52
2023/04/06 03:33:14;;;;;;;9.50;8.00;;;0.90;99.90;;;;;;5021438;27;20324;-50
2023/04/06 03:35:39;;;;;;;9.18;8.27;;;0.90;99.90;;;;;;5023226;27;20046;-52
2023/04/06 03:38:05;;;;;;;9.40;8.40;;;0.80;99.90;;;;;;5006158;28;20313;-55
2023/04/06 03:40:31;;;;;;;9.93;8.10;;;0.80;99.90;;;;;;5021839;27;20125;-53
2023/04/06 03:42:57;;;;;;;8.77;7.75;;;0.80;99.90;;;;;;5036215;28;20031;-51
2023/04/06 03:45:22;;;;;;;12.02;10.80;;;0.80;99.90;;;;;;5040885;28;20065;-50
2023/04/06 03:47:48;;;;;;;11.95;9.18;;;0.80;99.90;;;;;;5025524;28;20096;-52
2023/04/06 03:50:14;;;;;;;12.40;8.98;;;0.80;99.90;;;;;;5037005;28;20041;-54
2023/04/06 03:52:40;;;;;;;11.02;8.70;;;0.70;99.90;;;;;;5035790;28;20502;-51
2023/04/06 03:55:06;;;;;;;9.95;8.35;;;0.70;99.90;;;;;;5039167;28;20041;-52
2023/04/06 03:57:32;;;;;;;9.95;8.43;;;0.70;99.90;;;;;;5038827;28;20136;-50
2023/04/06 03:59:58;;;;;;;9.60;8.27;;;0.70;99.90;;;;;;5024577;28;20185;-50
2023/04/06 04:02:23;;;;;;;11.38;8.40;;;0.80;99.90;;;;;;5023889;28;20045;-52
2023/04/06 04:04:49;;;;;;;10.02;8.77;;;0.70;99.90;;;;;;5036492;28;20046;-54
2023/04/06 04:07:15;;;;;;;9.77;8.63;;;0.80;99.90;;;;;;5038904;28;20045;-51
2023/04/06 04:09:40;;;;;;;9.40;7.97;;;0.80;99.90;;;;;;5037942;28;20033;-51
2023/04/06 04:12:06;;;;;;;10.13;8.40;;;0.80;99.90;;;;;;5030152;28;20057;-50
2023/04/06 04:14:32;;;;;;;9.48;8.48;;;0.80;99.90;;;;;;5005932;27;20069;-50
2023/04/06 04:16:57;;;;;;;8.93;8.02;;;0.80;99.90;;;;;;5022417;27;20119;-52
2023/04/06 04:19:23;;;;;;;10.88;8.85;;;0.80;99.90;;;;;;5022493;27;20048;-50
2023/04/06 04:21:49;;;;;;;10.02;8.48;;;0.70;99.90;;;;;;5024001;27;20452;-51
2023/04/06 04:24:14;;;;;;;9.25;8.35;;;0.70;99.90;;;;;;5024051;27;20048;-50
2023/04/06 04:26:40;;;;;;;11.13;9.30;;;0.70;99.90;;;;;;5025720;27;20055;-49
2023/04/06 04:29:06;;;;;;;9.63;8.43;;;0.70;99.90;;;;;;5026430;27;20037;-53
2023/04/06 04:31:32;;;;;;;11.95;8.80;;;0.60;99.90;;;;;;5026055;27;20160;-48
2023/04/06 04:33:59;;;;;;;12.35;8.90;;;0.60;99.90;;;;;;5025613;27;20391;-49
2023/04/06 04:36:25;;;;;;;10.45;8.80;;;0.60;99.90;;;;;;5022266;27;20049;-52
2023/04/06 04:38:51;;;;;;;10.85;9.30;;;0.60;99.90;;;;;;5021902;27;20045;-49
2023/04/06 04:41:17;;;;;;;13.15;9.23;;;0.60;99.90;;;;;;5006770;28;20141;-49
2023/04/06 04:43:42;;;;;;;11.35;9.02;;;0.60;99.90;;;;;;5007713;28;20471;-52
2023/04/06 04:46:08;;;;;;;10.85;9.23;;;0.60;99.90;;;;;;5030141;28;20053;-49
2023/04/06 04:48:34;;;;;;;13.38;9.85;;;0.60;99.90;;;;;;5023387;27;20060;-51
2023/04/06 04:51:00;;;;;;;10.90;9.57;;;0.60;99.90;;;;;;5008896;28;20368;-50
2023/04/06 04:53:25;;;;;;;10.75;9.15;;;0.50;99.90;;;;;;5022997;27;21227;-49
2023/04/06 04:55:51;;;;;;;11.95;9.90;;;0.60;99.90;;;;;;5005943;28;20037;-52
2023/04/06 04:58:18;;;;;;;12.80;9.13;;;0.60;99.90;;;;;;5023742;27;20044;-49
2023/04/06 05:00:44;;;;;;;11.02;9.30;;;0.60;99.90;;;;;;5022139;27;20165;-49
2023/04/06 05:03:24;;;;;;;13.10;9.43;;;0.60;99.90;;;;;;5020862;27;20209;-49
2023/04/06 05:05:50;;;;;;;13.85;9.05;;;0.60;99.90;;;;;;5046123;28;20554;-49
2023/04/06 05:08:16;;;;;;;11.23;9.25;;;0.70;99.90;;;;;;5024030;27;20042;-50
2023/04/06 05:10:42;;;;;;;12.77;9.52;;;0.60;99.90;;;;;;5023881;27;20072;-52
2023/04/06 05:13:08;;;;;;;11.95;9.85;;;0.70;99.90;;;;;;5013601;28;21546;-53
2023/04/06 05:15:40;;;;;;;12.15;10.05;;;0.70;99.90;;;;;;5023556;27;20094;-49
2023/04/06 05:18:09;;;;;;;12.93;9.35;;;0.80;99.90;;;;;;5024480;27;20116;-50
2023/04/06 05:20:35;;;;;;;10.63;9.35;;;0.80;99.90;;;;;;5022705;27;20465;-49
2023/04/06 05:23:01;;;;;;;11.15;9.55;;;0.90;99.90;;;;;;5030592;27;20046;-48
2023/04/06 05:25:27;;;;;;;12.40;10.00;;;0.90;99.90;;;;;;5024278;28;20046;-51
2023/04/06 05:27:53;;;;;;;10.98;9.88;;;0.90;99.90;;;;;;5024690;28;20034;-48
2023/04/06 05:30:20;;;;;;;11.52;9.25;;;0.90;99.90;;;;;;5020329;28;20527;-51
2023/04/06 05:32:46;;;;;;;12.05;10.15;;;1.00;99.90;;;;;;5023431;28;20046;-51
2023/04/06 05:35:12;;;;;;;12.30;9.95;;;1.10;99.90;;;;;;5020407;28;20662;-49
2023/04/06 05:37:38;;;;;;;11.05;9.88;;;1.10;99.90;;;;;;5023912;28;20064;-50
2023/04/06 05:40:04;;;;;;;12.38;10.30;;;1.20;99.90;;;;;;5012195;28;20052;-52
2023/04/06 05:42:41;;;;;;;12.68;10.15;;;1.30;99.90;;;;;;5033997;28;20057;-50
2023/04/06 05:45:08;;;;;;;12.65;9.48;;;1.30;99.90;;;;;;5054480;28;20183;-52
2023/04/06 05:47:33;;;;;;;12.68;10.05;;;1.40;99.90;;;;;;5035320;28;20126;-52
2023/04/06 05:49:59;;;;;;;11.13;9.55;;;1.40;99.90;;;;;;5054147;28;20120;-54
2023/04/06 05:52:25;;;;;;;15.27;10.15;;;1.50;99.90;;;;;;5046743;28;20060;-50
2023/04/06 05:54:51;;;;;;;12.43;10.10;;;1.60;99.90;;;;;;5054835;28;20409;-52
2023/04/06 05:57:17;;;;;;;12.55;10.32;;;1.60;99.90;;;;;;5051405;28;20048;-49
2023/04/06 05:59:43;;;;;;;11.63;10.40;;;1.70;99.90;;;;;;5055702;28;20039;-52
2023/04/06 06:02:08;;;;;;;12.60;9.88;;;1.80;99.90;;;;;;5053990;28;20038;-53
2023/04/06 06:04:34;;;;;;;14.15;10.80;;;1.90;99.90;;;;;;5034887;28;20480;-49
2023/04/06 06:07:00;;;;;;;13.25;10.10;;;2.40;99.90;;;;;;5057093;28;20260;-48
2023/04/06 06:09:26;;;;;;;11.05;9.85;;;3.30;99.90;;;;;;5045908;28;20036;-50
2023/04/06 06:11:51;;;;;;;11.75;10.55;;;4.00;99.90;;;;;;5051875;28;20486;-50
2023/04/06 06:14:21;;;;;;;11.93;10.20;;;4.70;99.90;;;;;;5023319;28;21622;-53
2023/04/06 06:16:50;;;;;;;11.45;10.25;;;5.30;99.90;;;;;;5024417;28;20046;-51
2023/04/06 06:19:15;;;;;;;12.43;9.80;;;5.80;99.90;;;;;;5026179;28;20132;-49
2023/04/06 06:21:41;;;;;;;10.48;9.48;;;6.40;99.90;;;;;;5026335;28;20502;-50
2023/04/06 06:24:07;;;;;;;10.70;9.60;;;6.80;99.90;;;;;;5016836;28;20562;-50
2023/04/06 06:26:35;;;;;;;13.23;10.43;;;7.00;99.90;;;;;;5039968;28;20132;-52
2023/04/06 06:29:00;;;;;;;11.70;9.07;;;7.20;99.90;;;;;;5027163;28;20088;-51
2023/04/06 06:31:26;;;;;;;11.23;9.57;;;7.60;99.90;;;;;;5019458;28;20199;-51
2023/04/06 06:33:52;;;;;;;13.88;9.30;;;8.20;99.90;;;;;;5020527;28;20059;-52
2023/04/06 06:36:18;;;;;;;12.18;9.73;;;8.70;99.90;;;;;;5020480;28;20175;-52
2023/04/06 06:38:44;;;;;;;11.20;9.15;;;8.60;99.90;;;;;;5024342;28;20046;-52
2023/04/06 06:41:10;;;;;;;11.95;9.45;;;8.80;99.90;;;;;;5008511;28;20049;-54
2023/04/06 06:43:36;;;;;;;10.52;9.40;;;9.40;99.90;;;;;;5045449;28;20072;-52
2023/04/06 06:46:02;;;;;;;11.93;9.35;;;9.00;99.90;;;;;;5052523;28;20048;-50
2023/04/06 06:48:27;;;;;;;10.55;9.48;;;9.10;99.90;;;;;;5057245;28;20035;-53
2023/04/06 06:50:53;;;;;;;10.52;9.50;;;9.20;99.90;;;;;;5061138;28;20039;-50
2023/04/06 06:53:20;;;;;;;10.88;9.70;;;9.40;99.90;;;;;;5060960;28;20038;-54
2023/04/06 06:55:48;;;;;;;12.32;9.55;;;;;;;;;;5054448;28;20048;-50
2023/04/06 06:58:14;;;;;;;9.80;8.90;;;9.80;99.90;;;;;;5010106;28;20698;-52
2023/04/06 07:00:40;;;;;;;10.18;9.05;;;10.10;99.90;;;;;;5025741;27;20407;-52
2023/04/06 07:03:05;;;;;;;9.75;8.75;;;10.30;99.90;;;;;;5024786;27;20047;-53
2023/04/06 07:05:31;;;;;;;12.88;9.98;;;10.20;99.70;;;;;;5026592;27;20063;-53
2023/04/06 07:07:56;;;;;;;11.65;9.55;;;10.40;99.60;;;;;;5006214;28;20149;-51
2023/04/06 07:10:22;;;;;;;10.80;9.32;;;10.00;99.90;;;;;;5027046;27;20247;-49
2023/04/06 07:12:48;;;;;;;10.50;9.40;;;9.80;99.90;;;;;;5022487;27;20144;-50
2023/04/06 07:15:13;;;;;;;10.73;8.88;;;10.00;99.90;;;;;;5028196;27;20400;-49
2023/04/06 07:17:41;;;;;;;10.38;9.20;;;10.20;99.90;;;;;;5036501;27;20124;-51
2023/04/06 07:20:07;;;;;;;11.40;9.30;;;9.40;99.90;;;;;;5035484;28;20566;-53
2023/04/06 07:22:32;;;;;;;10.88;9.77;;;9.10;99.90;;;;;;5034240;28;20387;-50
2023/04/06 07:24:58;;;;;;;10.90;9.10;;;8.40;99.90;;;;;;5038758;28;20105;-50
2023/04/06 07:27:24;;;;;;;12.45;9.85;;;7.90;99.90;;;;;;5035123;27;20046;-53
2023/04/06 07:29:50;;;;;;;12.10;10.25;;;7.50;99.90;;;;;;5037195;28;20031;-49
2023/04/06 07:32:15;;;;;;;11.68;9.85;;;7.70;99.90;;;;;;5029995;28;20037;-51
2023/04/06 07:34:41;;;;;;;13.18;10.20;;;7.50;99.90;;;;;;5034169;28;20057;-52
2023/04/06 07:37:06;;;;;;;12.43;10.95;;;7.50;99.90;;;;;;5030110;28;20140;-49
2023/04/06 07:39:32;;;;;;;13.35;10.05;;;7.40;99.90;;;;;;5031322;27;20041;-51
2023/04/06 07:41:57;;;;;;;12.07;10.80;;;7.50;99.90;;;;;;5033831;27;20045;-51
2023/04/06 07:44:23;;;;;;;12.45;10.93;;;7.60;99.90;;;;;;5025503;28;20090;-54
2023/04/06 07:46:49;;;;;;;12.63;10.73;;;7.50;99.90;;;;;;5039419;28;20506;-52
2023/04/06 07:49:14;;;;;;;12.50;11.18;;;7.40;99.90;;;;;;5043610;28;20037;-51
2023/04/06 07:51:40;;;;;;;13.15;11.23;;;7.50;99.90;;;;;;5034842;27;20036;-55
2023/04/06 07:54:06;;;;;;;12.77;11.18;;;7.60;99.90;;;;;;5031251;27;20489;-53
2023/04/06 07:56:31;;;;;;;14.68;11.15;;;7.70;99.90;;;;;;5032126;28;20050;-51
2023/04/06 07:58:57;;;;;;;12.07;10.50;;;8.00;99.90;;;;;;5033387;27;20473;-51
2023/04/06 08:01:24;;;;;;;13.18;10.80;;;8.10;99.90;;;;;;5044316;27;20052;-52
2023/04/06 08:03:50;;;;;;;13.18;10.60;;;8.20;99.90;;;;;;5036157;28;20448;-51
2023/04/06 08:06:16;;;;;;;13.20;11.13;;;8.50;99.90;;;;;;5038977;28;20053;-52
2023/04/06 08:08:42;;;;;;;11.63;10.40;;;8.50;99.90;;;;;;5030473;27;20049;-53
2023/04/06 08:11:08;;;;;;;14.10;11.05;;;8.60;99.90;;;;;;5040912;28;20029;-52
2023/04/06 08:13:35;;;;;;;11.50;9.95;;;8.80;99.90;;;;;;5034987;28;20049;-54
2023/04/06 08:16:01;;;;;;;12.55;11.18;;;8.90;99.90;;;;;;5029652;28;20488;-55
2023/04/06 08:18:26;;;;;;;12.18;10.88;;;9.10;99.90;;;;;;5044365;28;20114;-51
2023/04/06 08:20:52;;;;;;;11.80;10.60;;;9.20;99.90;;;;;;5045381;28;20057;-50
2023/04/06 08:23:17;;;;;;;12.23;10.45;;;9.30;99.90;;;;;;5036287;28;20041;-53
2023/04/06 08:25:43;;;;;;;14.35;11.52;;;9.30;99.90;;;;;;5042919;28;20446;-52
2023/04/06 08:28:09;;;;;;;12.93;11.13;;;9.40;99.90;;;;;;5037699;28;20060;-55
2023/04/06 08:30:35;;;;;;;12.38;10.95;;;9.40;99.90;;;;;;5033222;28;20370;-51
2023/04/06 08:33:01;;;;;;;14.38;11.10;;;9.60;99.90;;;;;;5031579;28;20065;-54
2023/04/06 08:35:27;;;;;;;12.18;10.77;;;9.80;99.90;;;;;;5042324;27;20497;-51
2023/04/06 08:37:53;;;;;;;13.00;11.68;;;10.00;99.90;;;;;;5038182;27;20130;-51
2023/04/06 08:40:19;;;;;;;14.70;11.25;;;10.10;99.90;;;;;;5040873;27;20497;-53
2023/04/06 08:42:54;;;;;;;13.38;11.55;;;10.10;99.90;;;;;;5043216;28;20041;-51
2023/04/06 08:45:21;;;;;;;13.25;11.32;;;10.30;99.90;;;;;;5030254;28;20034;-52
2023/04/06 08:47:50;;;;;;;15.18;11.88;;;10.30;99.90;;;;;;5032165;27;20063;-54
2023/04/06 08:50:17;;;;;;;15.27;10.70;;;10.30;99.90;;;;;;5036330;28;20491;-51
2023/04/06 08:52:46;;;;;;;15.27;11.77;;;10.50;99.90;;;;;;5035778;28;20654;-51
2023/04/06 08:55:11;;;;;;;12.95;11.40;;;10.60;99.90;;;;;;5035647;28;20045;-53
2023/04/06 08:57:37;;;;;;;13.45;12.00;;;10.40;99.90;;;;;;5039900;27;20042;-52
2023/04/06 09:00:04;;;;;;;13.95;12.40;;;10.50;99.90;;;;;;5037517;28;20109;-52
2023/04/06 09:02:30;;;;;;;15.50;12.32;;;10.60;99.90;;;;;;5035986;28;20080;-51
2023/04/06 09:04:57;;;;;;;14.32;11.70;;;10.80;99.90;;;;;;5032112;28;20118;-52
2023/04/06 09:07:23;;;;;;;14.00;11.85;;;10.90;99.90;;;;;;5038025;28;20071;-51
2023/04/06 09:09:51;;;;;;;16.80;12.73;;;11.00;99.90;;;;;;5039648;28;20414;-52
2023/04/06 09:12:30;;;;;;;13.65;12.18;;;10.90;99.90;;;;;;5022829;28;20043;-52
2023/04/06 09:14:57;;;;;;;15.90;12.20;;;11.10;99.90;;;;;;5041253;28;20175;-51
2023/04/06 09:17:27;;;;;;;15.88;13.02;;;11.50;99.90;;;;;;5036171;28;20031;-51
2023/04/06 09:19:53;;;;;;;14.77;12.52;;;11.40;99.90;;;;;;5046449;28;20392;-51
2023/04/06 09:22:19;;;;;;;16.83;12.65;;;11.40;99.90;;;;;;5038680;28;20049;-53
2023/04/06 09:24:53;;;;;;;15.88;13.13;;;11.50;99.90;;;;;;5045028;28;20539;-51
2023/04/06 09:27:33;;;;;;;15.25;12.63;;;11.40;99.90;;;;;;5040104;28;20049;-52
2023/04/06 09:30:04;;;;;;;15.77;13.38;;;11.40;99.90;;;;;;5039076;28;20042;-51
2023/04/06 09:32:29;;;;;;;14.50;13.07;;;11.40;99.90;;;;;;5037581;28;20051;-52
2023/04/06 09:35:08;;;;;;;16.42;13.55;;;11.50;99.90;;;;;;5041612;28;20050;-50
2023/04/06 09:37:35;;;;;;;17.13;13.35;;;11.60;99.90;;;;;;5032171;28;20059;-50
2023/04/06 09:40:07;;;;;;;15.35;13.75;;;11.70;99.90;;;;;;5031917;28;20445;-50
2023/04/06 09:42:34;;;;;;;14.95;13.02;;;11.80;99.90;;;;;;5037216;28;20041;-51
2023/04/06 09:45:01;;;;;;;16.35;13.77;;;11.70;99.70;;;;;;5011567;28;20068;-50
2023/04/06 09:47:26;;;;;;;18.33;13.77;;;11.80;99.90;;;;;;5036637;28;20045;-50
2023/04/06 09:49:59;;;;;;;17.52;14.77;;;12.00;99.90;;;;;;5041996;28;20112;-52
2023/04/06 09:52:30;;;;;;;18.70;14.57;;;12.00;99.90;;;;;;5050912;28;20168;-52
2023/04/06 09:55:01;;;;;;;16.10;13.95;;;12.10;99.90;;;;;;5044483;28;20045;-53
2023/04/06 09:57:30;;;;;;;15.02;13.50;;;12.20;99.50;;;;;;5042780;28;20031;-54
2023/04/06 10:00:14;;;;;;;16.08;13.65;;;12.30;99.70;;;;;;5057386;28;20147;-54
2023/04/06 10:03:11;;;;;;;15.63;13.98;;;12.30;99.00;;;;;;5055807;28;20054;-55
2023/04/06 10:05:39;;;;;;;17.77;15.43;;;12.40;99.30;;;;;;5052329;28;20602;-55
2023/04/06 10:08:13;;;;;;;18.15;14.23;;;12.10;97.10;;;;;;5029529;28;20050;-52
2023/04/06 10:10:39;;;;;;;18.67;15.23;;;12.30;97.00;;;;;;5053564;28;20089;-55
2023/04/06 10:13:05;;;;;;;21.35;15.52;;;12.40;97.50;;;;;;5042632;28;20051;-51
2023/04/06 10:15:31;;;;;;;20.23;17.05;;;12.50;98.70;;;;;;5044895;28;20125;-54
2023/04/06 10:17:58;;;;;;;24.40;17.02;;;12.40;95.50;;;;;;5041626;28;20050;-53
2023/04/06 10:20:36;;;;;;;21.33;16.75;;;12.50;94.60;;;;;;5054883;28;20042;-50
2023/04/06 10:23:06;;;;;;;21.10;16.48;;;12.60;96.20;;;;;;5011217;28;20053;-55
2023/04/06 10:25:36;;;;;;;19.50;16.23;;;12.90;96.70;;;;;;5033010;28;20042;-51
2023/04/06 10:28:05;;;;;;;19.50;16.98;;;13.00;95.30;;;;;;5043138;27;20025;-53
2023/04/06 10:30:41;;;;;;;20.92;16.77;;;13.20;95.00;;;;;;5043425;27;20067;-50
2023/04/06 10:33:15;;;;;;;20.70;16.73;;;13.00;93.90;;;;;;5032645;27;20118;-52
2023/04/06 10:35:40;;;;;;;20.30;16.88;;;12.90;93.50;;;;;;5041690;28;20571;-51
2023/04/06 10:38:07;;;;;;;20.92;16.85;;;13.00;93.40;;;;;;5093045;28;20051;-55
2023/04/06 10:40:36;;;;;;;23.73;18.13;;;13.20;95.00;;;;;;5101999;28;20116;-51
2023/04/06 10:43:10;;;;;;;21.13;18.33;;;12.90;92.90;;;;;;5103286;28;20771;-54
2023/04/06 10:45:36;;;;;;;23.65;18.30;;;12.80;93.40;;;;;;5103591;28;20039;-53
2023/04/06 10:48:16;;;;;;;20.50;18.13;;;12.80;92.90;;;;;;5104521;28;20039;-54
2023/04/06 10:50:45;;;;;;;22.50;18.92;;;12.80;93.80;;;;;;5104057;28;20519;-52
2023/04/06 10:53:10;;;;;;;23.67;19.25;;;12.80;93.50;;;;;;5100846;28;20053;-52
2023/04/06 10:55:40;;;;;;;24.27;18.23;;;12.90;93.30;;;;;;5101908;28;20103;-53
2023/04/06 10:58:08;;;;;;;22.30;18.85;;;12.90;92.60;;;;;;5105673;27;20040;-51
2023/04/06 11:00:36;;;;;;;23.60;19.38;;;13.00;92.90;;;;;;5104041;28;21661;-53
2023/04/06 11:03:01;;;;;;;21.57;19.27;;;13.40;94.00;;;;;;5104039;28;20043;-55
2023/04/06 11:05:27;;;;;;;23.35;18.02;;;13.60;92.80;;;;;;5101338;28;20122;-52
2023/04/06 11:07:53;;;;;;;23.38;18.02;;;13.70;92.50;;;;;;5102747;28;20048;-52
2023/04/06 11:10:22;;;;;;;25.27;20.48;;;13.50;92.00;;;;;;5099018;28;20039;-54
2023/04/06 11:12:54;;;;;;;22.65;19.58;;;13.40;91.50;;;;;;5104717;28;20048;-53
2023/04/06 11:15:20;;;;;;;26.35;19.55;;;13.50;91.50;;;;;;5104359;28;20118;-55
2023/04/06 11:17:46;;;;;;;22.73;18.55;;;13.40;90.70;;;;;;5101673;28;20131;-53
2023/04/06 11:20:12;;;;;;;23.25;20.27;;;13.50;90.40;;;;;;5104612;28;20041;-51
2023/04/06 11:22:52;;;;;;;25.45;20.70;;;13.50;90.60;;;;;;5104026;28;20495;-52
2023/04/06 11:25:18;;;;;;;25.02;20.23;;;13.20;88.20;;;;;;5102536;28;20134;-52
2023/04/06 11:27:46;;;;;;;24.92;20.23;;;13.50;91.10;;;;;;5101067;28;20511;-54
2023/04/06 11:30:12;;;;;;;25.30;20.00;;;13.70;90.70;;;;;;5100346;28;20044;-54
2023/04/06 11:32:44;;;;;;;23.83;20.30;;;13.70;88.90;;;;;;5099926;28;20051;-53
2023/04/06 11:35:32;;;;;;;24.98;21.00;;;13.50;87.80;;;;;;5102320;28;20122;-53
2023/04/06 11:37:58;;;;;;;;;;;13.50;87.90;;;;;;5051317;27;20077;-55
2023/04/06 11:40:24;;;;;;;23.50;19.38;;;13.50;86.90;;;;;;5035068;27;19921;-54
2023/04/06 11:42:55;;;;;;;23.52;20.55;;;13.50;88.10;;;;;;5039796;27;20052;-54
2023/04/06 11:45:22;;;;;;;27.85;19.95;;;13.60;87.50;;;;;;5056961;28;20065;-51
2023/04/06 11:47:57;;;;;;;26.10;20.05;;;13.60;87.10;;;;;;5025828;27;20042;-52
2023/04/06 11:50:23;;;;;;;21.27;18.50;;;13.50;86.50;;;;;;5044480;28;20465;-52
2023/04/06 11:53:00;;;;;;;22.35;19.33;;;13.60;87.00;;;;;;5049724;28;20091;-52
2023/04/06 11:55:25;;;;;;;23.35;19.25;;;13.60;86.70;;;;;;5050338;27;20060;-54
2023/04/06 11:57:51;;;;;;;24.20;19.83;;;13.70;88.00;;;;;;5045810;28;20116;-51
2023/04/06 12:00:17;;;;;;;23.67;19.55;;;13.80;87.80;;;;;;5048269;28;20027;-51
2023/04/06 12:02:47;;;;;;;22.75;18.00;;;13.90;86.30;;;;;;5046859;28;20049;-52
2023/04/06 12:05:13;;;;;;;23.15;19.45;;;13.80;86.60;;;;;;5047689;28;20046;-50
2023/04/06 12:07:39;;;;;;;23.52;18.42;;;14.00;86.70;;;;;;5034247;28;20387;-51
2023/04/06 12:10:05;;;;;;;23.80;18.23;;;14.00;84.40;;;;;;5045719;27;20041;-51
2023/04/06 12:12:30;;;;;;;21.38;18.13;;;14.00;83.10;;;;;;5036178;27;20122;-54
2023/04/06 12:14:57;;;;;;;22.90;19.20;;;14.20;85.60;;;;;;5031757;27;20049;-51
2023/04/06 12:17:23;;;;;;;23.02;18.83;;;14.30;85.00;;;;;;5039006;27;20096;-55
2023/04/06 12:19:49;;;;;;;25.40;18.92;;;14.50;84.60;;;;;;5045886;28;20049;-51
2023/04/06 12:22:15;;;;;;;22.60;18.92;;;14.80;85.70;;;;;;4621584;22;20047;-54
2023/04/06 12:24:41;;;;;;;22.50;19.50;;;14.90;85.10;;;;;;5104917;28;20128;-53
2023/04/06 12:27:06;;;;;;;22.88;19.55;;;14.90;84.00;;;;;;5106334;28;20088;-53
2023/04/06 12:29:32;;;;;;;22.38;19.55;;;14.60;83.30;;;;;;5105923;28;20036;-54
2023/04/06 12:31:59;;;;;;;21.83;19.45;;;14.50;81.70;;;;;;5107266;28;20126;-54
2023/04/06 12:34:25;;;;;;;21.73;19.08;;;14.60;84.10;;;;;;5107076;28;20040;-51
2023/04/06 12:36:51;;;;;;;21.35;18.02;;;14.30;84.40;;;;;;5107985;28;20042;-55
2023/04/06 12:39:18;;;;;;;23.27;19.15;;;14.30;83.30;;;;;;5108462;28;20039;-55
2023/04/06 12:41:44;;;;;;;22.00;18.93;;;14.20;83.90;;;;;;5107483;28;20044;-55